首页
METAR-TAF:

METAR-TAF

机场 :

马拉松, 佛罗里达州, 美国

纬度: 24-43-33N, 经度: 081-02-52W, 海拔: 2米

当前天气观测

该预报发布于28分钟前的15:53 UTC
风速16节,风向东北,有时为23节阵风
温度 29°C
湿度 70%
气压 1015 hPa
能見度: 16.1公里
阴天层高于5000英尺

METAR: KMTH 231553Z AUTO 04016G23KT 10SM OVC050 29/23 A2996 RMK AO2 SLP143 T02890228

时间: 12:21 (16:21 UTC)

预报

该预报发布于22分钟前的15:59 UTC
预报有效从23日的 16点(UTC)到 24日的 12点(UTC)
风速14节,风向东北,有时为21节阵风
能見度: 10公里
散云层高于5000英尺
短暂存在
从 23日的 16点(UTC)到 23日的 18点(UTC)
多云层高于4000英尺
阴天层高于5000英尺
从 23日的 1800点(UTC)
风速11节,风向东转东北,有时为17节阵风
能見度: 10公里
散云层高于3000英尺

TAF: KMTH 231559Z 2316/2412 04014G21KT P6SM SCT050 TEMPO 2316/2318 BKN040 OVC050 FM231800 06011G17KT P6SM SCT030

超过4000个机场的气象观测和天气预报(METAR&TAF报告)。

可查询的气象台以黄色和红色小点在地图上表示。

将鼠标移到小点上方,可查看气象台名称。

然后点击查看天气观测和预报。

如需切换地图:点击带黑十字的绿色按钮放大地图;点击带横线的绿色按钮缩小地图;或者点击绿色箭头查看邻近地区的地图。


METAR-TAF: